createdAt,value
2019-06-07T00:01:58.166Z,97795.04
2019-06-07T00:04:29.247Z,97797.87
2019-06-07T00:07:00.514Z,97804.52
2019-06-07T00:09:31.604Z,97802.36
2019-06-07T00:12:02.932Z,97796.41
2019-06-07T00:14:34.352Z,97804.23
2019-06-07T00:17:05.547Z,97803.55
2019-06-07T00:19:36.478Z,97808.03
2019-06-07T00:22:16.552Z,97804.91
2019-06-07T00:24:40.322Z,97799.93
2019-06-07T00:27:12.580Z,97804.55
2019-06-07T00:29:44.006Z,97816.31
2019-06-07T00:32:18.471Z,97816.81
2019-06-07T00:34:47.654Z,97817.31
2019-06-07T00:37:22.572Z,97822.48
2019-06-07T00:40:12.930Z,97820.47
2019-06-07T00:42:24.581Z,97825.52
2019-06-07T00:44:55.737Z,97823.63
2019-06-07T00:47:26.897Z,97824.09
2019-06-07T00:49:58.012Z,97821.75
2019-06-07T00:55:04.361Z,97818.52
2019-06-07T00:57:35.526Z,97818.97
2019-06-07T01:00:09.009Z,97816.33
2019-06-07T01:02:40.235Z,97819.95
2019-06-07T01:05:15.431Z,97822.98
2019-06-07T01:07:44.524Z,97819.47
2019-06-07T01:10:42.826Z,97812.20
2019-06-07T01:12:50.004Z,97814.67
2019-06-07T01:15:29.173Z,97816.62
2019-06-07T01:18:33.539Z,97813.50
2019-06-07T01:20:31.192Z,97810.02
2019-06-07T01:23:02.266Z,97823.98
2019-06-07T01:25:33.330Z,97825.81
2019-06-07T01:28:04.727Z,97829.20
2019-06-07T01:30:36.237Z,97834.83
2019-06-07T01:33:07.485Z,97829.52
2019-06-07T01:35:38.959Z,97832.88
2019-06-07T01:38:11.175Z,97832.92
2019-06-07T01:40:42.175Z,97830.09
2019-06-07T01:43:13.288Z,97837.88
2019-06-07T01:45:44.430Z,97841.33
2019-06-07T01:48:19.793Z,97838.88
2019-06-07T01:50:48.448Z,97835.90
2019-06-07T01:53:25.753Z,97833.92
2019-06-07T01:55:55.528Z,97828.14
2019-06-07T01:58:29.074Z,97829.81
2019-06-07T02:00:59.217Z,97835.92
2019-06-07T02:03:33.132Z,97838.89
2019-06-07T02:06:03.191Z,97843.21
2019-06-07T02:08:34.592Z,97848.02
2019-06-07T02:11:06.030Z,97853.31
2019-06-07T02:13:37.372Z,97846.84
2019-06-07T02:16:09.041Z,97852.83
2019-06-07T02:19:00.819Z,97851.33
2019-06-07T02:21:12.818Z,97842.42
2019-06-07T02:23:43.930Z,97838.77
2019-06-07T02:26:15.162Z,97840.25
2019-06-07T02:28:46.089Z,97847.69
2019-06-07T02:31:17.052Z,97848.53
2019-06-07T02:33:48.063Z,97850.16
2019-06-07T02:36:19.037Z,97849.70
2019-06-07T02:38:49.942Z,97856.49
2019-06-07T02:41:25.805Z,97852.33
2019-06-07T02:43:53.613Z,97852.48
2019-06-07T02:46:35.128Z,97837.91
2019-06-07T02:48:59.047Z,97848.88
2019-06-07T02:51:35.831Z,97845.88
2019-06-07T02:54:02.924Z,97850.84
2019-06-07T02:56:44.857Z,97848.52
2019-06-07T02:59:06.862Z,97847.70
2019-06-07T03:01:42.067Z,97838.45
2019-06-07T03:04:12.276Z,97839.07
2019-06-07T03:06:45.708Z,97845.06
2019-06-07T03:09:19.083Z,97843.05
2019-06-07T03:11:54.102Z,97842.56
2019-06-07T03:14:28.650Z,97852.17
2019-06-07T03:17:03.235Z,97856.80
2019-06-07T03:19:40.864Z,97861.11
2019-06-07T03:22:12.189Z,97864.09
2019-06-07T03:24:46.103Z,97874.03
2019-06-07T03:27:41.319Z,97869.23
2019-06-07T03:29:50.103Z,97869.89
2019-06-07T03:32:21.252Z,97873.52
2019-06-07T03:34:58.511Z,97876.30
2019-06-07T03:37:30.772Z,97875.95
2019-06-07T03:40:02.352Z,97875.73
2019-06-07T03:42:34.784Z,97887.83
2019-06-07T03:45:08.285Z,97896.55
2019-06-07T03:47:42.580Z,97899.50
2019-06-07T03:50:12.469Z,97898.94
2019-06-07T03:52:43.655Z,97910.30
2019-06-07T03:55:14.835Z,97908.71
2019-06-07T03:58:29.838Z,97915.30
2019-06-07T04:00:19.955Z,97923.02
2019-06-07T04:02:50.928Z,97917.45
2019-06-07T04:05:22.229Z,97927.66
2019-06-07T04:07:53.341Z,97929.94
2019-06-07T04:10:44.668Z,97945.88
2019-06-07T04:12:57.557Z,97952.14
2019-06-07T04:15:28.538Z,97954.65
2019-06-07T04:18:02.364Z,97950.80
2019-06-07T04:20:34.085Z,97948.16
2019-06-07T04:23:24.565Z,97948.80
2019-06-07T04:25:42.253Z,97952.73
2019-06-07T04:28:11.192Z,97952.73
2019-06-07T04:30:44.299Z,97954.11
2019-06-07T04:33:16.331Z,97953.86
2019-06-07T04:35:47.630Z,97946.97
2019-06-07T04:38:18.758Z,97941.77
2019-06-07T04:40:51.893Z,97947.33
2019-06-07T04:43:23.773Z,97953.16
2019-06-07T04:45:57.049Z,97942.35
2019-06-07T04:48:33.470Z,97947.81
2019-06-07T04:51:05.227Z,97940.13
2019-06-07T04:53:38.626Z,97944.55
2019-06-07T04:56:09.227Z,97943.54
2019-06-07T04:58:41.308Z,97951.02
2019-06-07T05:01:26.725Z,97952.05
2019-06-07T05:03:45.724Z,97954.88
2019-06-07T05:06:16.953Z,97957.78
2019-06-07T05:08:48.252Z,97955.10
2019-06-07T05:11:19.690Z,97960.72
2019-06-07T05:13:51.518Z,97964.36
2019-06-07T05:16:23.538Z,97961.28
2019-06-07T05:18:55.248Z,97962.97
2019-06-07T05:21:46.422Z,97958.41
2019-06-07T05:24:09.180Z,97953.36
2019-06-07T05:26:33.702Z,97953.84
2019-06-07T05:29:05.347Z,97954.44
2019-06-07T05:31:39.588Z,97963.80
2019-06-07T05:34:09.092Z,97963.22
2019-06-07T05:36:44.306Z,97954.14
2019-06-07T05:39:12.960Z,97960.88
2019-06-07T05:41:44.585Z,97960.41
2019-06-07T05:44:15.750Z,97956.53
2019-06-07T05:46:47.580Z,97960.83
2019-06-07T05:49:18.762Z,97965.57
2019-06-07T05:51:49.783Z,97970.81
2019-06-07T05:54:21.348Z,97968.84
2019-06-07T05:56:52.852Z,97973.35
2019-06-07T05:59:24.034Z,97963.91
2019-06-07T06:02:02.891Z,97968.95
2019-06-07T06:04:28.439Z,97970.17
2019-06-07T06:07:00.492Z,97970.17
2019-06-07T06:09:31.403Z,97974.56
2019-06-07T06:12:02.764Z,97975.78
2019-06-07T06:14:35.384Z,97980.91
2019-06-07T06:17:06.721Z,97969.89
2019-06-07T06:19:40.686Z,97966.91
2019-06-07T06:22:10.543Z,97969.70
2019-06-07T06:24:48.930Z,97971.34
2019-06-07T06:27:55.178Z,97969.09
2019-06-07T06:29:50.103Z,97975.31
2019-06-07T06:34:53.922Z,97975.05
2019-06-07T06:37:25.426Z,97981.77
2019-06-07T06:39:56.398Z,97980.31
2019-06-07T06:42:27.684Z,97989.78
2019-06-07T06:44:59.007Z,97998.41
2019-06-07T06:47:30.312Z,98007.56
2019-06-07T06:50:02.746Z,98007.16
2019-06-07T06:52:34.051Z,98004.47
2019-06-07T06:55:08.679Z,98013.38
2019-06-07T06:57:41.420Z,98013.17
2019-06-07T07:00:15.986Z,98014.68
2019-06-07T07:03:41.938Z,98016.27
2019-06-07T07:05:20.259Z,98026.77
2019-06-07T07:07:52.998Z,98021.81
2019-06-07T07:10:43.252Z,98022.91
2019-06-07T07:13:15.248Z,98024.58
2019-06-07T07:15:50.979Z,98013.99
2019-06-07T07:18:20.796Z,98023.52
2019-06-07T07:20:56.802Z,98010.08
2019-06-07T07:23:25.019Z,98008.95
2019-06-07T07:25:59.282Z,98008.45
2019-06-07T07:28:28.922Z,98012.78
2019-06-07T07:31:00.742Z,98012.07
2019-06-07T07:34:20.763Z,98014.31
2019-06-07T07:36:28.160Z,98010.75
2019-06-07T07:38:37.950Z,98003.33
2019-06-07T07:41:15.693Z,98004.80
2019-06-07T07:43:41.941Z,97998.63
2019-06-07T07:46:30.437Z,97986.05
2019-06-07T07:48:48.544Z,97986.84
2019-06-07T07:51:19.779Z,97999.13
2019-06-07T07:54:08.355Z,98005.56
2019-06-07T07:56:23.966Z,98010.31
2019-06-07T07:59:01.473Z,98012.94
2019-06-07T08:01:27.904Z,98020.34
2019-06-07T08:03:59.959Z,98018.91
2019-06-07T08:06:30.979Z,98017.10
2019-06-07T08:09:02.270Z,98025.45
2019-06-07T08:11:33.427Z,98029.02
2019-06-07T08:14:04.468Z,98029.13
2019-06-07T08:16:35.531Z,98040.66
2019-06-07T08:19:06.887Z,98043.30
2019-06-07T08:21:38.746Z,98044.03
2019-06-07T08:24:10.806Z,98047.91
2019-06-07T08:26:42.005Z,98051.05
2019-06-07T08:29:13.047Z,98061.17
2019-06-07T08:31:45.041Z,98059.56
2019-06-07T08:34:16.125Z,98048.41
2019-06-07T08:36:48.024Z,98056.16
2019-06-07T08:39:19.883Z,98058.95
2019-06-07T08:41:59.265Z,98061.16
2019-06-07T08:44:25.699Z,98075.77
2019-06-07T08:47:14.905Z,98062.47
2019-06-07T08:49:29.429Z,98074.27
2019-06-07T08:52:07.917Z,98071.19
2019-06-07T08:54:33.566Z,98072.24
2019-06-07T08:57:20.127Z,98067.66
2019-06-07T08:59:37.414Z,98066.06
2019-06-07T09:02:22.826Z,98072.91
2019-06-07T09:04:41.343Z,98085.70
2019-06-07T09:07:19.482Z,98088.19
2019-06-07T09:09:45.609Z,98088.72
2019-06-07T09:12:18.277Z,98095.27
2019-06-07T09:15:06.322Z,98092.41
2019-06-07T09:17:22.446Z,98096.09
2019-06-07T09:19:54.142Z,98095.47
2019-06-07T09:22:26.367Z,98089.40
2019-06-07T09:25:02.812Z,98095.16
2019-06-07T09:27:30.659Z,98085.19
2019-06-07T09:30:07.681Z,98089.38
2019-06-07T09:32:34.969Z,98092.95
2019-06-07T09:35:16.838Z,98084.00
2019-06-07T09:40:27.437Z,98096.62
2019-06-07T09:43:38.218Z,98095.31
2019-06-07T09:45:26.882Z,98079.61
2019-06-07T09:48:02.301Z,98083.34
2019-06-07T09:50:32.457Z,98082.61
2019-06-07T09:53:16.203Z,98079.47
2019-06-07T09:55:37.074Z,98084.18
2019-06-07T09:58:48.345Z,98080.06
2019-06-07T10:00:42.788Z,98082.94
2019-06-07T10:03:21.368Z,98074.47
2019-06-07T10:05:48.430Z,98077.51
2019-06-07T10:09:31.513Z,98078.84
2019-06-07T10:10:52.807Z,98076.89
2019-06-07T10:13:24.340Z,98078.02
2019-06-07T10:15:56.484Z,98083.53
2019-06-07T10:18:29.110Z,98095.94
2019-06-07T10:21:01.411Z,98092.58
2019-06-07T10:23:33.080Z,98084.66
2019-06-07T10:26:05.969Z,98083.76
2019-06-07T10:28:37.929Z,98082.23
2019-06-07T10:31:11.070Z,98086.66
2019-06-07T10:33:42.158Z,98083.04
2019-06-07T10:36:13.323Z,98090.84
2019-06-07T10:38:44.292Z,98086.63
2019-06-07T10:41:16.196Z,98082.18
2019-06-07T10:43:47.727Z,98080.94
2019-06-07T10:46:18.843Z,98091.62
2019-06-07T10:48:50.221Z,98087.95
2019-06-07T10:51:21.750Z,98090.63
2019-06-07T10:53:52.803Z,98086.66
2019-06-07T10:56:23.776Z,98083.75
2019-06-07T10:58:55.085Z,98080.85
2019-06-07T11:01:26.237Z,98079.19
2019-06-07T11:03:57.771Z,98075.56
2019-06-07T11:06:28.786Z,98084.55
2019-06-07T11:08:59.963Z,98082.48
2019-06-07T11:11:31.066Z,98076.70
2019-06-07T11:14:02.356Z,98081.48
2019-06-07T11:16:33.388Z,98069.04
2019-06-07T11:19:06.051Z,98075.28
2019-06-07T11:21:37.283Z,98062.25
2019-06-07T11:24:08.452Z,98072.20
2019-06-07T11:26:39.779Z,98070.80
2019-06-07T11:29:11.035Z,98068.45
2019-06-07T11:31:46.646Z,98068.50
2019-06-07T11:34:16.294Z,98071.90
2019-06-07T11:36:50.448Z,98064.20
2019-06-07T11:39:20.403Z,98062.22
2019-06-07T11:41:51.655Z,98049.86
2019-06-07T11:44:22.734Z,98055.91
2019-06-07T11:46:54.075Z,98046.77
2019-06-07T11:49:26.616Z,98050.59
2019-06-07T11:51:57.945Z,98045.59
2019-06-07T11:54:28.974Z,98049.27
2019-06-07T11:57:00.141Z,98048.98
2019-06-07T11:59:31.272Z,98055.06
2019-06-07T12:02:02.218Z,98056.25
2019-06-07T12:04:35.143Z,98061.09
2019-06-07T12:07:06.312Z,98053.85
2019-06-07T12:09:37.576Z,98052.56
2019-06-07T12:12:08.690Z,98046.98
2019-06-07T12:14:39.944Z,98048.26
2019-06-07T12:17:11.274Z,98041.86
2019-06-07T12:19:42.441Z,98050.06
2019-06-07T12:22:14.076Z,98045.81
2019-06-07T12:24:45.390Z,98046.91
2019-06-07T12:27:16.992Z,98051.70
2019-06-07T12:29:48.013Z,98037.50
2019-06-07T12:32:19.900Z,98036.08
2019-06-07T12:34:51.198Z,98025.79
2019-06-07T12:37:39.232Z,98028.83
2019-06-07T12:39:56.074Z,98030.03
2019-06-07T12:42:27.403Z,98028.29
2019-06-07T12:44:58.549Z,98022.13
2019-06-07T12:47:29.910Z,98023.48
2019-06-07T12:50:01.135Z,98027.19
2019-06-07T12:52:32.395Z,98019.76
2019-06-07T12:55:04.703Z,98026.98
2019-06-07T12:57:35.938Z,98029.05
2019-06-07T13:00:13.931Z,98023.02
2019-06-07T13:02:45.389Z,98024.92
2019-06-07T13:05:17.851Z,98020.66
2019-06-07T13:07:49.081Z,98023.88
2019-06-07T13:10:22.073Z,98025.52
2019-06-07T13:12:53.393Z,98029.84
2019-06-07T13:15:26.034Z,98030.59
2019-06-07T13:17:57.823Z,98029.45
2019-06-07T13:20:29.208Z,98018.77
2019-06-07T13:23:00.337Z,98017.39
2019-06-07T13:25:45.493Z,98021.35
2019-06-07T13:28:05.101Z,98020.20
2019-06-07T13:30:36.639Z,98012.54
2019-06-07T13:33:07.990Z,98012.66
2019-06-07T13:35:39.159Z,98009.17
2019-06-07T13:38:11.993Z,98010.41
2019-06-07T13:40:43.150Z,98004.94
2019-06-07T13:43:14.315Z,98009.02
2019-06-07T13:45:45.487Z,98007.90
2019-06-07T13:48:17.107Z,98009.21
2019-06-07T13:50:48.688Z,98010.27
2019-06-07T13:53:20.694Z,98008.06
2019-06-07T13:55:51.763Z,98005.78
2019-06-07T13:58:24.149Z,97995.92
2019-06-07T14:00:55.578Z,97998.27
2019-06-07T14:03:30.782Z,98000.68
2019-06-07T14:05:59.629Z,97999.25
2019-06-07T14:08:30.768Z,98001.01
2019-06-07T14:11:03.039Z,98001.38
2019-06-07T14:13:34.206Z,97992.55
2019-06-07T14:16:05.809Z,97992.59
2019-06-07T14:18:36.998Z,97991.85
2019-06-07T14:21:08.319Z,97988.55
2019-06-07T14:23:48.837Z,97990.43
2019-06-07T14:26:12.678Z,97983.04
2019-06-07T14:28:43.883Z,97975.05
2019-06-07T14:31:15.088Z,97986.30
2019-06-07T14:33:46.146Z,97989.61
2019-06-07T14:36:17.297Z,97988.17
2019-06-07T14:38:49.090Z,97982.38
2019-06-07T14:41:20.090Z,97991.03
2019-06-07T14:43:51.275Z,97993.26
2019-06-07T14:46:23.528Z,97990.00
2019-06-07T14:48:54.965Z,97999.84
2019-06-07T14:51:26.404Z,97994.16
2019-06-07T14:53:57.751Z,97999.78
2019-06-07T14:56:31.371Z,97997.63
2019-06-07T14:59:02.578Z,98005.33
2019-06-07T15:01:35.469Z,98000.76
2019-06-07T15:04:06.877Z,98000.36
2019-06-07T15:06:38.963Z,97986.23
2019-06-07T15:09:10.115Z,97987.58
2019-06-07T15:11:41.378Z,97998.61
2019-06-07T15:14:12.307Z,97992.86
2019-06-07T15:16:43.315Z,97997.27
2019-06-07T15:19:14.399Z,97996.76
2019-06-07T15:21:45.422Z,98001.95
2019-06-07T15:24:16.671Z,97993.84
2019-06-07T15:26:47.734Z,97996.83
2019-06-07T15:29:19.014Z,97998.76
2019-06-07T15:31:50.232Z,97999.41
2019-06-07T15:34:21.393Z,97996.41
2019-06-07T15:36:52.422Z,97994.71
2019-06-07T15:39:23.487Z,97997.17
2019-06-07T15:41:54.471Z,97994.66
2019-06-07T15:44:25.404Z,97987.69
2019-06-07T15:46:56.394Z,97985.08
2019-06-07T15:49:27.777Z,97990.38
2019-06-07T15:51:58.764Z,97993.62
2019-06-07T15:54:30.306Z,97993.46
2019-06-07T15:57:01.542Z,97989.05
2019-06-07T15:59:33.169Z,97993.15
2019-06-07T16:02:04.621Z,97998.45
2019-06-07T16:04:35.992Z,97988.36
2019-06-07T16:07:07.130Z,97988.80
2019-06-07T16:09:38.502Z,97989.09
2019-06-07T16:12:09.744Z,97981.84
2019-06-07T16:14:41.145Z,97989.63
2019-06-07T16:17:12.402Z,97984.73
2019-06-07T16:19:46.472Z,97989.97
2019-06-07T16:22:16.286Z,97985.52
2019-06-07T16:24:47.446Z,97990.05
2019-06-07T16:27:20.090Z,97989.33
2019-06-07T16:29:51.064Z,97993.36
2019-06-07T16:32:22.282Z,97988.42
2019-06-07T16:34:53.478Z,97993.07
2019-06-07T16:37:24.564Z,97990.97
2019-06-07T16:39:55.713Z,97997.76
2019-06-07T16:42:27.511Z,98001.56
2019-06-07T16:44:58.579Z,98001.86
2019-06-07T16:47:29.629Z,98003.43
2019-06-07T16:50:00.910Z,98010.81
2019-06-07T16:52:32.405Z,98004.74
2019-06-07T16:55:03.856Z,98002.64
2019-06-07T16:57:36.566Z,98006.15
2019-06-07T17:00:12.603Z,98010.99
2019-06-07T17:02:44.990Z,98007.84
2019-06-07T17:05:18.143Z,98012.81
2019-06-07T17:07:49.147Z,98014.68
2019-06-07T17:10:20.665Z,98007.38
2019-06-07T17:12:52.022Z,98007.54
2019-06-07T17:15:23.664Z,98007.42
2019-06-07T17:17:54.833Z,98008.41
2019-06-07T17:20:26.164Z,98007.82
2019-06-07T17:22:57.120Z,98010.10
2019-06-07T17:25:28.176Z,98010.63
2019-06-07T17:27:59.411Z,98016.87
2019-06-07T17:30:30.638Z,98013.85
2019-06-07T17:33:01.703Z,98014.30
2019-06-07T17:35:32.774Z,98011.31
2019-06-07T17:38:04.095Z,98012.44
2019-06-07T17:40:35.537Z,98011.09
2019-06-07T17:43:06.767Z,98017.66
2019-06-07T17:45:38.315Z,98016.21
2019-06-07T17:48:09.597Z,98018.00
2019-06-07T17:50:41.632Z,98015.46
2019-06-07T17:53:14.383Z,98013.19
2019-06-07T17:55:46.190Z,98003.34
2019-06-07T17:58:17.492Z,98017.19
2019-06-07T18:00:53.830Z,98018.89
2019-06-07T18:03:24.971Z,98020.38
2019-06-07T18:05:56.088Z,98014.86
2019-06-07T18:08:27.732Z,98011.16
2019-06-07T18:10:59.242Z,98013.09
2019-06-07T18:13:32.209Z,98014.26
2019-06-07T18:16:03.305Z,98012.56
2019-06-07T18:18:34.350Z,98008.09
2019-06-07T18:21:05.688Z,98010.18
2019-06-07T18:23:37.207Z,98012.33
2019-06-07T18:26:08.336Z,98014.31
2019-06-07T18:28:39.656Z,98014.33
2019-06-07T18:31:11.050Z,98010.02
2019-06-07T18:33:42.094Z,98007.25
2019-06-07T18:36:13.037Z,98005.92
2019-06-07T18:38:44.158Z,98012.92
2019-06-07T18:41:15.217Z,98008.12
2019-06-07T18:43:47.062Z,98011.72
2019-06-07T18:46:18.290Z,98011.63
2019-06-07T18:48:50.580Z,98016.36
2019-06-07T18:51:21.817Z,98018.91
2019-06-07T18:53:53.710Z,98020.27
2019-06-07T18:56:24.867Z,98024.18
2019-06-07T18:58:56.084Z,98030.44
2019-06-07T19:01:27.253Z,98030.03
2019-06-07T19:03:58.289Z,98036.50
2019-06-07T19:06:29.377Z,98045.98
2019-06-07T19:09:01.129Z,98045.67
2019-06-07T19:11:32.016Z,98037.93
2019-06-07T19:14:03.254Z,98040.51
2019-06-07T19:16:34.363Z,98045.02
2019-06-07T19:19:05.429Z,98047.84
2019-06-07T19:21:36.517Z,98049.87
2019-06-07T19:24:07.635Z,98045.83
2019-06-07T19:26:38.688Z,98047.68
2019-06-07T19:29:09.738Z,98042.30
2019-06-07T19:31:40.791Z,98041.69
2019-06-07T19:34:12.555Z,98049.09
2019-06-07T19:36:49.007Z,98054.44
2019-06-07T19:39:19.304Z,98048.95
2019-06-07T19:41:51.807Z,98049.56
2019-06-07T19:44:23.167Z,98048.44
2019-06-07T19:46:54.341Z,98047.98
2019-06-07T19:49:25.531Z,98044.14
2019-06-07T19:51:57.017Z,98041.05
2019-06-07T19:54:28.411Z,98041.13
2019-06-07T19:56:59.493Z,98041.84
2019-06-07T19:59:30.514Z,98041.59
2019-06-07T20:02:02.179Z,98042.88
2019-06-07T20:04:33.533Z,98051.30
2019-06-07T20:07:05.707Z,98042.33
2019-06-07T20:09:37.381Z,98045.51
2019-06-07T20:12:08.336Z,98042.84
2019-06-07T20:14:39.511Z,98036.67
2019-06-07T20:17:10.833Z,98045.40
2019-06-07T20:19:42.140Z,98055.01
2019-06-07T20:22:13.297Z,98051.92
2019-06-07T20:24:44.390Z,98055.81
2019-06-07T20:27:15.722Z,98053.00
2019-06-07T20:29:46.840Z,98051.35
2019-06-07T20:32:17.843Z,98054.33
2019-06-07T20:34:49.089Z,98049.14
2019-06-07T20:37:20.208Z,98055.30
2019-06-07T20:39:51.223Z,98053.29
2019-06-07T20:42:22.433Z,98057.44
2019-06-07T20:44:53.719Z,98061.59
2019-06-07T20:47:24.906Z,98062.03
2019-06-07T20:49:55.910Z,98059.68
2019-06-07T20:52:27.004Z,98064.62
2019-06-07T20:54:58.461Z,98059.73
2019-06-07T20:57:29.907Z,98058.31
2019-06-07T21:00:09.888Z,98062.47
2019-06-07T21:02:33.867Z,98060.94
2019-06-07T21:05:07.607Z,98054.56
2019-06-07T21:07:38.646Z,98051.90
2019-06-07T21:10:11.306Z,98058.15
2019-06-07T21:12:43.045Z,98054.97
2019-06-07T21:15:14.798Z,98055.65
2019-06-07T21:17:46.224Z,98047.10
2019-06-07T21:20:17.276Z,98051.10
2019-06-07T21:22:48.232Z,98048.61
2019-06-07T21:25:20.758Z,98053.62
2019-06-07T21:27:51.922Z,98051.67
2019-06-07T21:30:23.783Z,98047.36
2019-06-07T21:32:55.031Z,98043.75
2019-06-07T21:35:26.308Z,98036.42
2019-06-07T21:37:57.277Z,98041.95
2019-06-07T21:40:28.679Z,98050.16
2019-06-07T21:42:59.832Z,98050.67
2019-06-07T21:45:30.866Z,98045.89
2019-06-07T21:48:03.738Z,98045.44
2019-06-07T21:50:34.675Z,98046.86
2019-06-07T21:53:06.563Z,98052.95
2019-06-07T21:55:37.785Z,98043.17
2019-06-07T21:58:09.111Z,98042.52
2019-06-07T22:00:59.898Z,98039.11
2019-06-07T22:03:30.982Z,98042.99
2019-06-07T22:06:03.367Z,98040.06
2019-06-07T22:08:34.927Z,98039.31
2019-06-07T22:11:06.217Z,98047.16
2019-06-07T22:13:37.430Z,98045.28
2019-06-07T22:16:25.620Z,98043.28
2019-06-07T22:18:41.888Z,98045.13
2019-06-07T22:21:13.169Z,98049.20
2019-06-07T22:23:45.010Z,98050.41
2019-06-07T22:26:16.324Z,98050.66
2019-06-07T22:28:47.608Z,98049.36
2019-06-07T22:31:19.291Z,98047.08
2019-06-07T22:33:50.771Z,98042.80
2019-06-07T22:36:21.922Z,98044.38
2019-06-07T22:38:52.941Z,98043.23
2019-06-07T22:41:24.309Z,98043.94
2019-06-07T22:43:55.200Z,98038.88
2019-06-07T22:46:36.824Z,98038.66
2019-06-07T22:48:59.070Z,98034.73
2019-06-07T22:51:30.272Z,98042.44
2019-06-07T22:54:01.553Z,98042.37
2019-06-07T22:56:34.492Z,98036.64
2019-06-07T22:59:05.732Z,98037.14
2019-06-07T23:01:36.851Z,98036.23
2019-06-07T23:04:08.434Z,98032.14
2019-06-07T23:06:39.943Z,98026.11
2019-06-07T23:09:12.864Z,98023.72
2019-06-07T23:11:44.056Z,98018.85
2019-06-07T23:14:15.375Z,98012.19
2019-06-07T23:16:55.597Z,98014.34
2019-06-07T23:19:20.483Z,98014.34
2019-06-07T23:21:51.769Z,98013.17
2019-06-07T23:24:22.741Z,98011.84
2019-06-07T23:26:54.124Z,98009.84
2019-06-07T23:29:26.664Z,98012.19
2019-06-07T23:31:58.140Z,98007.45
2019-06-07T23:34:29.539Z,98009.10
2019-06-07T23:37:00.735Z,98006.73
2019-06-07T23:39:31.773Z,98005.11
2019-06-07T23:42:02.929Z,98007.42
2019-06-07T23:44:34.145Z,97998.14
2019-06-07T23:47:11.193Z,98001.28
2019-06-07T23:49:38.356Z,97999.44
2019-06-07T23:52:09.503Z,97995.80
2019-06-07T23:54:40.706Z,97992.23
2019-06-07T23:57:12.143Z,97997.31
2019-06-07T23:59:43.482Z,97997.27
